Time;durP1;ratioP1;P1;durP2;ratioP2;P2;SDS_P1;SDS_P2;PMS_P1;PMS_P2;Temp;Humidity;BMP_temperature;BMP_pressure;BME280_temperature;BME280_humidity;BME280_pressure;Samples;Min_cycle;Max_cycle;Signal;HPM_P1;HPM_P2
2023/06/02 00:01:31;;;;;;;0.55;0.00;;;;;;;10.23;43.02;101857.53;4985428;28;20133;-69
2023/06/02 00:03:59;;;;;;;1.60;0.00;;;;;;;10.25;42.93;101866.25;4989886;28;20104;-69
2023/06/02 00:06:30;;;;;;;0.45;0.00;;;;;;;10.24;43.17;101862.75;4984553;28;20573;-69
2023/06/02 00:08:58;;;;;;;1.98;0.00;;;;;;;10.22;42.57;101866.25;4982345;28;20518;-69
2023/06/02 00:11:25;;;;;;;0.03;0.00;;;;;;;10.24;42.33;101870.59;4983858;28;20050;-69
2023/06/02 00:13:53;;;;;;;0.55;0.00;;;;;;;10.24;42.76;101870.59;4982810;28;20090;-68
2023/06/02 00:16:21;;;;;;;0.10;0.00;;;;;;;10.23;42.57;101875.81;4986726;28;20125;-69
2023/06/02 00:18:48;;;;;;;0.00;0.00;;;;;;;10.22;42.30;101872.34;4982450;28;20122;-68
2023/06/02 00:21:15;;;;;;;1.80;0.00;;;;;;;10.22;42.65;101866.25;4984302;28;20046;-69
2023/06/02 00:23:42;;;;;;;1.65;0.00;;;;;;;10.22;42.58;101872.34;4985757;28;20057;-69
2023/06/02 00:26:09;;;;;;;3.75;0.00;;;;;;;10.22;42.70;101881.94;4977595;28;20046;-68
2023/06/02 00:28:36;;;;;;;0.00;0.00;;;;;;;10.17;42.31;101870.59;4979772;28;20073;-69
2023/06/02 00:31:04;;;;;;;1.85;0.00;;;;;;;10.21;42.28;101880.16;4989445;28;20787;-68
2023/06/02 00:33:31;;;;;;;0.03;0.00;;;;;;;10.21;42.32;101882.78;4982076;28;20562;-69
2023/06/02 00:35:59;;;;;;;0.00;0.00;;;;;;;10.19;42.06;101882.78;4984187;28;20065;-69
2023/06/02 00:38:26;;;;;;;1.17;0.03;;;;;;;10.18;42.06;101888.88;4983867;28;20061;-69
2023/06/02 00:40:53;;;;;;;0.30;0.00;;;;;;;10.17;42.15;101887.13;4987264;28;20589;-69
2023/06/02 00:43:20;;;;;;;0.00;0.00;;;;;;;10.17;42.37;101897.56;4982217;28;20125;-69
2023/06/02 00:45:47;;;;;;;0.10;0.00;;;;;;;10.14;42.53;101900.19;4985441;28;20050;-69
2023/06/02 00:48:15;;;;;;;0.22;0.10;;;;;;;10.11;42.69;101898.44;4987113;28;20046;-68
2023/06/02 00:50:43;;;;;;;0.00;0.00;;;;;;;10.08;42.80;101903.66;4986865;28;20043;-69
2023/06/02 00:53:11;;;;;;;0.50;0.00;;;;;;;9.99;42.55;101880.16;4981780;28;20046;-69
2023/06/02 00:55:38;;;;;;;0.90;0.00;;;;;;;10.02;42.40;101880.16;4986085;28;20076;-69
2023/06/02 00:58:07;;;;;;;0.25;0.00;;;;;;;10.03;42.22;101896.69;4980899;28;20046;-69
2023/06/02 01:00:36;;;;;;;2.83;0.00;;;;;;;10.00;42.11;101892.34;4986664;28;20050;-69
2023/06/02 01:03:03;;;;;;;0.73;0.00;;;;;;;9.99;42.41;101895.81;4983309;28;20050;-69
2023/06/02 01:05:32;;;;;;;0.00;0.00;;;;;;;9.99;42.67;101902.75;4983106;28;20161;-69
2023/06/02 01:08:03;;;;;;;0.77;0.00;;;;;;;9.99;42.76;101908.88;4982689;28;20436;-68
2023/06/02 01:10:31;;;;;;;0.32;0.00;;;;;;;9.97;42.45;101913.22;4982507;28;20097;-69
2023/06/02 01:12:59;;;;;;;0.20;0.00;;;;;;;9.93;42.42;101916.66;4983193;28;20042;-68
2023/06/02 01:15:26;;;;;;;1.10;0.00;;;;;;;9.89;42.07;101909.69;4983272;28;20046;-69
2023/06/02 01:17:55;;;;;;;0.63;0.00;;;;;;;9.86;42.10;101914.91;4983424;28;20051;-68
2023/06/02 01:20:23;;;;;;;2.58;0.00;;;;;;;9.87;42.48;101916.66;4985008;28;20600;-68
2023/06/02 01:23:01;;;;;;;0.98;0.00;;;;;;;9.86;42.42;101917.53;4985663;28;20046;-68
2023/06/02 01:25:30;;;;;;;0.50;0.00;;;;;;;9.83;42.73;101914.91;4984021;28;20074;-68
2023/06/02 01:28:02;;;;;;;2.40;0.00;;;;;;;9.83;42.28;101909.69;4982384;28;20414;-68
2023/06/02 01:30:31;;;;;;;0.05;0.00;;;;;;;9.78;42.42;101912.28;4982491;28;20053;-68
2023/06/02 01:33:07;;;;;;;1.08;0.00;;;;;;;9.77;42.84;101917.50;4982624;28;20706;-69
2023/06/02 01:35:42;;;;;;;0.93;0.00;;;;;;;9.73;42.64;101929.66;4985448;28;20413;-69
2023/06/02 01:38:10;;;;;;;;;;;;;;;9.71;42.84;101920.09;4983107;28;20050;-69
2023/06/02 01:40:40;;;;;;;0.25;0.00;;;;;;;9.69;42.92;101927.91;4973971;28;20052;-69
2023/06/02 01:43:09;;;;;;;0.10;0.00;;;;;;;9.65;43.21;101927.03;4984424;28;20065;-69
2023/06/02 01:45:37;;;;;;;0.00;0.00;;;;;;;9.64;43.03;101930.50;4986091;28;20057;-68
2023/06/02 01:48:05;;;;;;;3.03;0.00;;;;;;;9.61;42.97;101929.63;4983201;28;20091;-68
2023/06/02 01:50:33;;;;;;;3.30;0.00;;;;;;;9.59;43.58;101927.00;4984309;28;20050;-68
2023/06/02 01:53:00;;;;;;;0.00;0.00;;;;;;;9.57;43.26;101927.88;4977711;28;20057;-68
2023/06/02 01:55:27;;;;;;;0.47;0.00;;;;;;;9.55;43.67;101926.97;4984430;28;20060;-68
2023/06/02 01:57:55;;;;;;;2.10;0.00;;;;;;;9.54;43.79;101927.88;4983152;28;20050;-68
2023/06/02 02:00:23;;;;;;;0.05;0.00;;;;;;;9.56;43.75;101933.94;4986447;28;20050;-68
2023/06/02 02:02:51;;;;;;;0.20;0.00;;;;;;;9.55;43.72;101937.41;4984739;28;20149;-68
2023/06/02 02:05:18;;;;;;;2.08;0.85;;;;;;;9.53;44.21;101942.63;4984903;28;20556;-68
2023/06/02 02:07:47;;;;;;;1.52;0.00;;;;;;;9.52;43.85;101946.09;4977885;28;20060;-68
2023/06/02 02:10:15;;;;;;;0.00;0.00;;;;;;;9.50;44.00;101946.94;4985094;28;20052;-68
2023/06/02 02:12:42;;;;;;;0.13;0.00;;;;;;;9.48;44.57;101944.34;4985026;28;20065;-69
2023/06/02 02:15:11;;;;;;;0.00;0.00;;;;;;;9.45;44.36;101950.44;4983377;28;20545;-68
2023/06/02 02:17:44;;;;;;;0.90;0.00;;;;;;;9.43;44.29;101948.66;4981870;28;20050;-68
2023/06/02 02:20:13;;;;;;;0.57;0.00;;;;;;;9.38;44.21;101948.63;4985396;28;20077;-68
2023/06/02 02:22:40;;;;;;;0.98;0.00;;;;;;;9.37;44.79;101966.91;4979990;28;20046;-68
2023/06/02 02:25:08;;;;;;;1.00;0.00;;;;;;;9.34;45.00;101956.44;4985108;28;20050;-68
2023/06/02 02:27:35;;;;;;;0.00;0.00;;;;;;;9.29;44.74;101958.16;4982537;28;20046;-67
2023/06/02 02:30:05;;;;;;;1.45;0.00;;;;;;;9.27;44.95;101960.75;4981867;28;20042;-67
2023/06/02 02:32:36;;;;;;;0.25;0.00;;;;;;;9.23;45.36;101965.06;4983975;28;20096;-67
2023/06/02 02:35:03;;;;;;;0.85;0.00;;;;;;;9.20;45.39;101965.06;4984251;28;20430;-66
2023/06/02 02:37:30;;;;;;;2.17;0.00;;;;;;;9.20;45.33;101974.63;4985247;28;20510;-67
2023/06/02 02:39:57;;;;;;;1.55;0.00;;;;;;;9.15;45.68;101969.34;4985493;28;20043;-67
2023/06/02 02:42:24;;;;;;;0.00;0.00;;;;;;;9.15;45.65;101971.09;4985102;28;20092;-66
2023/06/02 02:44:51;;;;;;;0.10;0.00;;;;;;;9.13;45.60;101973.69;4984159;28;20042;-67
2023/06/02 02:47:19;;;;;;;0.40;0.00;;;;;;;9.11;45.77;101974.56;4985507;28;20054;-67
2023/06/02 02:49:47;;;;;;;0.17;0.00;;;;;;;9.09;45.82;101974.53;4981997;28;20054;-67
2023/06/02 02:52:14;;;;;;;1.10;0.00;;;;;;;9.06;46.14;101971.91;4985865;28;20097;-67
2023/06/02 02:54:41;;;;;;;0.08;0.00;;;;;;;9.04;45.83;101971.03;4983449;28;20061;-67
2023/06/02 02:57:08;;;;;;;0.00;0.00;;;;;;;9.01;45.85;101979.69;4982490;28;20057;-67
2023/06/02 02:59:35;;;;;;;0.00;0.00;;;;;;;8.99;46.40;101981.44;4986963;28;20699;-69
2023/06/02 03:02:03;;;;;;;4.82;0.15;;;;;;;8.97;46.19;101982.28;4982074;28;20062;-68
2023/06/02 03:04:32;;;;;;;0.08;0.00;;;;;;;8.95;46.81;101981.38;4985577;28;20042;-69
2023/06/02 03:07:01;;;;;;;0.00;0.00;;;;;;;8.94;46.69;101985.72;4981016;28;20446;-68
2023/06/02 03:09:28;;;;;;;0.65;0.00;;;;;;;8.90;46.59;101983.06;4982346;28;20066;-69
2023/06/02 03:11:57;;;;;;;0.08;0.00;;;;;;;8.89;46.51;101977.00;4984376;28;20050;-69
2023/06/02 03:14:26;;;;;;;2.72;0.00;;;;;;;8.90;46.72;101990.91;4982872;28;20047;-69
2023/06/02 03:16:53;;;;;;;0.10;0.00;;;;;;;8.88;47.07;101985.69;4983149;28;20065;-69
2023/06/02 03:19:24;;;;;;;0.00;0.00;;;;;;;8.88;47.03;101984.78;4986499;28;20046;-68
2023/06/02 03:21:51;;;;;;;0.20;0.00;;;;;;;8.87;46.85;101980.44;4980658;28;20057;-68
2023/06/02 03:24:21;;;;;;;0.03;0.00;;;;;;;8.85;47.24;101980.47;4983687;28;20058;-68
2023/06/02 03:26:51;;;;;;;1.98;0.00;;;;;;;8.86;47.31;101991.75;4981186;28;20058;-68
2023/06/02 03:29:18;;;;;;;0.17;0.17;;;;;;;8.86;47.59;101983.94;4985626;28;20066;-68
2023/06/02 03:31:45;;;;;;;0.60;0.00;;;;;;;8.84;47.29;101990.84;4984385;28;20109;-68
2023/06/02 03:34:13;;;;;;;0.00;0.00;;;;;;;8.84;47.66;101986.50;4980578;28;20042;-68
2023/06/02 03:36:40;;;;;;;0.65;0.00;;;;;;;8.85;47.82;101984.75;4984033;28;20129;-68
2023/06/02 03:39:09;;;;;;;0.15;0.00;;;;;;;8.85;47.92;101997.78;4984364;28;20054;-68
2023/06/02 03:41:38;;;;;;;0.08;0.00;;;;;;;8.87;47.59;101996.94;4984819;28;20054;-68
2023/06/02 03:44:06;;;;;;;0.13;0.00;;;;;;;8.87;47.80;101986.53;4986705;28;20108;-68
2023/06/02 03:46:33;;;;;;;0.90;0.00;;;;;;;8.88;47.70;101993.50;4987928;28;20043;-68
2023/06/02 03:49:01;;;;;;;3.35;0.00;;;;;;;8.88;47.89;101992.59;4987527;28;20121;-68
2023/06/02 03:51:28;;;;;;;0.10;0.00;;;;;;;8.94;47.74;102001.38;4986988;28;20382;-68
2023/06/02 03:53:55;;;;;;;0.10;0.00;;;;;;;8.98;47.58;101999.66;4984153;28;20153;-68
2023/06/02 03:56:22;;;;;;;0.90;0.00;;;;;;;9.02;47.60;102001.41;4986029;28;20054;-68
2023/06/02 03:58:50;;;;;;;1.20;0.00;;;;;;;9.07;47.45;102009.28;4986477;28;20061;-68
2023/06/02 04:01:18;;;;;;;0.85;0.00;;;;;;;9.09;47.58;102008.41;4982582;28;20141;-68
2023/06/02 04:03:45;;;;;;;0.20;0.00;;;;;;;9.11;47.59;102011.91;4985422;28;20054;-68
2023/06/02 04:06:12;;;;;;;0.20;0.00;;;;;;;9.14;47.90;102014.56;4985410;28;20050;-69
2023/06/02 04:08:40;;;;;;;0.10;0.00;;;;;;;9.18;47.57;102013.69;4985688;28;20122;-69
2023/06/02 04:11:07;;;;;;;0.10;0.00;;;;;;;9.22;47.72;102015.47;4984313;28;20042;-69
2023/06/02 04:13:34;;;;;;;0.20;0.00;;;;;;;9.24;48.09;102016.34;4985573;28;20053;-68
2023/06/02 04:16:02;;;;;;;0.00;0.00;;;;;;;9.30;47.44;102022.47;4982613;28;20452;-69
2023/06/02 04:18:31;;;;;;;0.10;0.00;;;;;;;9.36;47.62;102018.19;4987585;28;20133;-69
2023/06/02 04:20:58;;;;;;;0.00;0.00;;;;;;;9.42;47.85;102010.41;4988398;28;20101;-69
2023/06/02 04:23:25;;;;;;;2.08;0.00;;;;;;;9.50;47.95;102015.63;4986811;28;20046;-69
2023/06/02 04:25:52;;;;;;;0.00;0.00;;;;;;;9.56;47.70;102026.13;4986456;28;20050;-69
2023/06/02 04:28:20;;;;;;;0.00;0.00;;;;;;;9.64;47.75;102021.81;4984790;28;20157;-69
2023/06/02 04:30:48;;;;;;;0.13;0.10;;;;;;;9.74;47.59;102025.34;4982698;28;20050;-69
2023/06/02 04:33:16;;;;;;;0.57;0.00;;;;;;;9.81;47.15;102021.88;4987368;28;20053;-68
2023/06/02 04:35:43;;;;;;;0.85;0.00;;;;;;;9.89;47.46;102014.97;4982757;28;20051;-69
2023/06/02 04:38:11;;;;;;;0.00;0.00;;;;;;;10.00;47.25;102027.22;4984550;28;20056;-69
2023/06/02 04:40:39;;;;;;;0.00;0.00;;;;;;;10.07;46.90;102032.44;4983853;28;20060;-69
2023/06/02 04:43:06;;;;;;;0.28;0.00;;;;;;;10.18;47.36;102029.88;4984999;28;20068;-69
2023/06/02 04:45:33;;;;;;;0.17;0.00;;;;;;;10.29;46.75;102016.88;4983564;28;20050;-69
2023/06/02 04:48:00;;;;;;;0.65;0.00;;;;;;;10.39;46.89;102026.50;4982720;28;20133;-69
2023/06/02 04:50:29;;;;;;;0.20;0.00;;;;;;;10.50;46.25;102030.00;4988506;28;20046;-70
2023/06/02 04:52:56;;;;;;;4.25;0.00;;;;;;;10.56;46.33;102016.94;4987126;28;20060;-69
2023/06/02 04:55:23;;;;;;;0.08;0.00;;;;;;;10.71;46.57;102026.53;4988223;28;20105;-68
2023/06/02 04:57:50;;;;;;;0.10;0.00;;;;;;;10.78;45.53;102019.56;4985687;28;20137;-68
2023/06/02 05:00:18;;;;;;;1.02;0.00;;;;;;;10.85;45.87;102017.84;4982894;28;20054;-69
2023/06/02 05:02:46;;;;;;;3.15;0.00;;;;;;;10.95;45.69;102032.66;4985590;28;20078;-68
2023/06/02 05:05:13;;;;;;;0.57;0.00;;;;;;;11.08;45.28;102028.31;4985954;28;20100;-68
2023/06/02 05:07:41;;;;;;;0.90;0.10;;;;;;;11.18;45.52;102030.88;4981366;28;20047;-69
2023/06/02 05:10:10;;;;;;;1.60;0.00;;;;;;;11.27;45.25;102024.81;4986309;28;20054;-69
2023/06/02 05:12:41;;;;;;;0.98;0.00;;;;;;;11.33;45.27;102030.03;4987550;28;20050;-68
2023/06/02 05:15:09;;;;;;;0.08;0.00;;;;;;;11.43;44.95;102031.72;4980826;28;20053;-68
2023/06/02 05:17:36;;;;;;;0.20;0.00;;;;;;;11.45;44.90;102019.53;4985547;28;20066;-68
2023/06/02 05:20:04;;;;;;;0.10;0.00;;;;;;;11.61;44.57;102035.16;4982934;28;20046;-68
2023/06/02 05:22:31;;;;;;;0.32;0.00;;;;;;;11.69;44.25;102034.28;4987291;28;20120;-68
2023/06/02 05:25:00;;;;;;;0.43;0.00;;;;;;;11.76;43.76;102035.16;4982255;28;20058;-68
2023/06/02 05:27:27;;;;;;;2.17;0.00;;;;;;;11.84;43.63;102028.16;4985274;28;20058;-68
2023/06/02 05:29:54;;;;;;;1.85;0.00;;;;;;;11.91;43.91;102035.13;4982715;28;20054;-68
2023/06/02 05:32:24;;;;;;;0.52;0.00;;;;;;;11.98;43.91;102032.47;4984934;28;20445;-68
2023/06/02 05:34:51;;;;;;;3.60;0.00;;;;;;;12.03;43.55;102028.09;4984830;28;20042;-69
2023/06/02 05:37:19;;;;;;;0.98;0.00;;;;;;;12.10;43.61;102032.44;4981355;28;20130;-68
2023/06/02 05:39:46;;;;;;;0.00;0.00;;;;;;;12.16;42.70;102037.63;4988781;28;20050;-68
2023/06/02 05:42:15;;;;;;;0.20;0.00;;;;;;;12.21;42.63;102035.88;4985377;28;20046;-69
2023/06/02 05:44:42;;;;;;;0.75;0.00;;;;;;;12.30;42.59;102035.81;4982453;28;20046;-68
2023/06/02 05:47:09;;;;;;;0.30;0.00;;;;;;;12.35;42.82;102041.00;4984530;28;20058;-69
2023/06/02 05:49:36;;;;;;;0.13;0.00;;;;;;;12.39;42.50;102029.66;4981982;28;20062;-68
2023/06/02 05:52:03;;;;;;;0.28;0.10;;;;;;;12.48;42.31;102041.84;4984479;28;20054;-68
2023/06/02 05:54:30;;;;;;;0.77;0.00;;;;;;;12.52;42.02;102044.44;4986087;28;20057;-67
2023/06/02 05:56:57;;;;;;;6.18;0.00;;;;;;;12.55;42.07;102052.28;4982724;28;20426;-69
2023/06/02 05:59:26;;;;;;;1.20;0.10;;;;;;;12.55;42.00;102054.00;4980881;28;20068;-67
2023/06/02 06:01:52;;;;;;;0.00;0.00;;;;;;;12.54;41.76;102058.38;4983756;28;20046;-68
2023/06/02 06:04:20;;;;;;;0.43;0.00;;;;;;;12.55;41.64;102049.66;4983708;28;20050;-68
2023/06/02 06:06:47;;;;;;;0.90;0.00;;;;;;;12.57;41.63;102054.88;4984896;28;20057;-70
2023/06/02 06:09:15;;;;;;;0.28;0.00;;;;;;;12.58;41.47;102054.00;4982388;28;20048;-69
2023/06/02 06:11:44;;;;;;;0.10;0.00;;;;;;;12.57;41.34;102057.50;4984527;28;20509;-69
2023/06/02 06:14:10;;;;;;;1.92;0.00;;;;;;;12.54;41.26;102049.66;4986750;28;20057;-70
2023/06/02 06:16:39;;;;;;;3.90;0.00;;;;;;;12.51;41.47;102058.41;4981592;28;20057;-69
2023/06/02 06:19:07;;;;;;;0.13;0.00;;;;;;;12.50;41.25;102055.81;4984367;28;20056;-69
2023/06/02 06:21:35;;;;;;;0.70;0.00;;;;;;;12.50;41.23;102056.66;4983013;28;20133;-68
2023/06/02 06:24:02;;;;;;;0.20;0.00;;;;;;;12.47;41.69;102059.31;4984583;28;20050;-70
2023/06/02 06:26:29;;;;;;;0.28;0.00;;;;;;;12.45;41.78;102053.19;4982754;28;20047;-70
2023/06/02 06:28:56;;;;;;;3.65;0.00;;;;;;;12.44;41.63;102061.09;4983991;28;20056;-69
2023/06/02 06:31:23;;;;;;;0.28;0.00;;;;;;;12.42;41.84;102058.47;4981945;28;20078;-68
2023/06/02 06:33:51;;;;;;;1.00;0.00;;;;;;;12.43;41.99;102064.56;4984540;28;20059;-69
2023/06/02 06:36:18;;;;;;;0.43;0.00;;;;;;;12.43;42.19;102064.56;4983838;28;20749;-69
2023/06/02 06:38:45;;;;;;;0.17;0.00;;;;;;;12.34;41.55;102050.63;4981402;28;20742;-69
2023/06/02 06:41:12;;;;;;;1.40;0.00;;;;;;;12.28;41.39;102044.56;4974167;28;20047;-69
2023/06/02 06:43:40;;;;;;;0.10;0.00;;;;;;;12.36;41.20;102061.97;4982295;28;20066;-68
2023/06/02 06:46:07;;;;;;;0.35;0.00;;;;;;;12.36;41.34;102064.59;4980164;28;20046;-70
2023/06/02 06:48:34;;;;;;;0.00;0.00;;;;;;;12.37;41.29;102061.09;4984182;28;20048;-72
2023/06/02 06:51:02;;;;;;;0.13;0.00;;;;;;;12.38;41.64;102065.47;4986023;28;20121;-68
2023/06/02 06:53:29;;;;;;;2.17;0.00;;;;;;;12.40;41.46;102065.44;4982520;28;20078;-69
2023/06/02 06:55:56;;;;;;;0.00;0.00;;;;;;;12.44;41.61;102074.19;4982991;28;20048;-69
2023/06/02 06:58:23;;;;;;;0.30;0.00;;;;;;;12.48;41.08;102073.28;4983402;28;20515;-69
2023/06/02 07:00:51;;;;;;;1.08;0.00;;;;;;;12.50;41.39;102072.41;4981106;28;20054;-75
2023/06/02 07:03:18;;;;;;;1.00;0.00;;;;;;;12.55;41.37;102085.44;4984332;28;20047;-79
2023/06/02 07:05:45;;;;;;;1.00;0.00;;;;;;;12.49;41.45;102059.28;4983122;28;20105;-78
2023/06/02 07:08:14;;;;;;;0.30;0.10;;;;;;;12.59;40.75;102069.72;4987709;28;20125;-79
2023/06/02 07:10:41;;;;;;;0.50;0.00;;;;;;;12.57;40.83;102081.09;4983449;28;20129;-79
2023/06/02 07:13:08;;;;;;;2.22;0.00;;;;;;;12.66;40.71;102083.63;4990971;28;20125;-77
2023/06/02 07:15:36;;;;;;;3.20;0.10;;;;;;;12.67;40.91;102087.16;4988248;28;20050;-77
2023/06/02 07:18:03;;;;;;;0.20;0.00;;;;;;;12.67;40.36;102089.78;4993872;28;20517;-82
2023/06/02 07:20:30;;;;;;;4.80;0.10;;;;;;;12.61;40.63;102074.97;4989865;28;20042;-82
2023/06/02 07:22:58;;;;;;;2.63;0.10;;;;;;;12.71;40.75;102089.72;4992979;28;20050;-82
2023/06/02 07:25:26;;;;;;;0.73;0.00;;;;;;;12.76;40.82;102087.97;4988590;28;20745;-76
2023/06/02 07:27:53;;;;;;;0.10;0.00;;;;;;;12.81;41.06;102091.44;4988193;28;20512;-76
2023/06/02 07:30:20;;;;;;;0.00;0.00;;;;;;;12.91;40.91;102083.50;4988002;28;20054;-76
2023/06/02 07:32:47;;;;;;;1.45;0.00;;;;;;;12.98;40.89;102082.56;4987414;28;20049;-76
2023/06/02 07:35:15;;;;;;;0.15;0.00;;;;;;;13.04;40.78;102090.41;4986730;28;20050;-74
2023/06/02 07:37:43;;;;;;;0.00;0.00;;;;;;;13.06;40.28;102096.47;4989738;28;20046;-78
2023/06/02 07:40:11;;;;;;;0.98;0.00;;;;;;;13.06;40.22;102099.09;4986877;28;20154;-74
2023/06/02 07:42:39;;;;;;;0.55;0.00;;;;;;;12.99;40.08;102082.56;4987670;28;20062;-73
2023/06/02 07:45:07;;;;;;;0.10;0.00;;;;;;;13.05;39.78;102100.84;4989990;28;20384;-74
2023/06/02 07:47:38;;;;;;;1.02;0.00;;;;;;;13.07;39.34;102103.50;4985229;28;20077;-75
2023/06/02 07:50:05;;;;;;;0.00;0.00;;;;;;;13.09;39.61;102109.59;4989083;28;20043;-76
2023/06/02 07:52:34;;;;;;;0.10;0.08;;;;;;;13.09;39.05;102109.59;4987015;28;20070;-74
2023/06/02 07:55:01;;;;;;;0.00;0.00;;;;;;;13.01;39.23;102096.53;4987894;28;20597;-74
2023/06/02 07:57:28;;;;;;;1.35;0.00;;;;;;;13.06;39.20;102104.34;4986872;28;20082;-76
2023/06/02 07:59:57;;;;;;;1.27;0.00;;;;;;;13.09;38.94;102106.97;4987722;28;20141;-74
2023/06/02 08:02:24;;;;;;;0.17;0.00;;;;;;;13.11;39.05;102104.31;4988720;28;20054;-73
2023/06/02 08:04:51;;;;;;;2.28;0.20;;;;;;;13.12;38.56;102106.94;4986927;28;20066;-77
2023/06/02 08:07:18;;;;;;;1.02;0.00;;;;;;;13.15;38.71;102098.16;4983872;28;20254;-74
2023/06/02 08:09:46;;;;;;;0.10;0.10;;;;;;;13.22;38.51;102087.59;4987158;28;20502;-76
2023/06/02 08:12:13;;;;;;;0.00;0.00;;;;;;;13.28;38.34;102100.72;4985052;28;20810;-72
2023/06/02 08:14:40;;;;;;;0.10;0.00;;;;;;;13.34;38.01;102104.16;4986914;28;20403;-74
2023/06/02 08:17:09;;;;;;;0.50;0.00;;;;;;;13.35;38.32;102095.41;4984488;28;20043;-74
2023/06/02 08:19:36;;;;;;;0.00;0.00;;;;;;;13.40;38.84;102110.22;4982962;28;20046;-74
2023/06/02 08:22:06;;;;;;;2.17;0.00;;;;;;;13.43;38.46;102102.34;4987151;28;20061;-74
2023/06/02 08:24:36;;;;;;;2.08;0.05;;;;;;;13.47;38.13;102100.56;4982944;28;20137;-71
2023/06/02 08:27:03;;;;;;;0.47;0.00;;;;;;;13.52;38.03;102104.03;4986149;28;20047;-72
2023/06/02 08:29:31;;;;;;;0.20;0.00;;;;;;;13.56;38.33;102099.59;4981664;28;20117;-68
2023/06/02 08:31:58;;;;;;;0.30;0.00;;;;;;;13.61;38.15;102108.31;4986217;28;20049;-75
2023/06/02 08:34:27;;;;;;;3.95;0.00;;;;;;;13.56;38.32;102100.47;4984681;28;20049;-76
2023/06/02 08:36:57;;;;;;;0.10;0.00;;;;;;;13.61;37.94;102109.16;4984175;28;20058;-74
2023/06/02 08:39:25;;;;;;;0.20;0.00;;;;;;;13.62;37.74;102118.78;4983282;28;20055;-77
2023/06/02 08:41:55;;;;;;;0.60;0.43;;;;;;;13.62;37.72;102117.91;4988752;28;20057;-78
2023/06/02 08:44:22;;;;;;;2.65;0.10;;;;;;;13.65;37.77;102117.88;4986577;28;20104;-76
2023/06/02 08:46:51;;;;;;;0.55;0.00;;;;;;;13.67;37.73;102113.50;4987925;28;20490;-78
2023/06/02 08:49:22;;;;;;;1.85;0.00;;;;;;;13.71;37.54;102113.44;4986645;28;20050;-80
2023/06/02 08:51:53;;;;;;;0.30;0.15;;;;;;;13.64;36.81;102103.88;4986315;28;20042;-76
2023/06/02 08:54:21;;;;;;;0.10;0.00;;;;;;;13.67;36.77;102108.25;4982821;28;20056;-77
2023/06/02 08:56:51;;;;;;;1.90;0.20;;;;;;;13.74;37.19;102130.91;4988368;28;20050;-77
2023/06/02 08:59:20;;;;;;;0.00;0.00;;;;;;;13.73;37.26;102123.94;4983302;28;20058;-75
2023/06/02 09:01:47;;;;;;;3.45;0.10;;;;;;;13.75;36.89;102132.69;4987565;28;20047;-77
2023/06/02 09:04:14;;;;;;;1.27;0.00;;;;;;;13.73;37.18;102132.69;4988134;28;20046;-76
2023/06/02 09:06:42;;;;;;;2.33;0.00;;;;;;;13.72;37.17;102140.59;4989934;28;20529;-79
2023/06/02 09:09:11;;;;;;;0.60;0.00;;;;;;;13.69;36.73;102144.09;4988429;28;20039;-77
2023/06/02 09:11:38;;;;;;;3.25;0.00;;;;;;;13.65;36.36;102131.00;4987308;28;20046;-74
2023/06/02 09:14:19;;;;;;;0.95;0.10;;;;;;;13.72;36.66;102140.59;4986514;28;20494;-74
2023/06/02 09:16:46;;;;;;;0.20;0.00;;;;;;;13.69;36.09;102144.09;4984107;28;20046;-75
2023/06/02 09:19:13;;;;;;;0.45;0.00;;;;;;;13.70;36.35;102151.09;4986931;28;20050;-73
2023/06/02 09:21:41;;;;;;;0.03;0.00;;;;;;;13.67;36.13;102156.38;4987115;28;20057;-74
2023/06/02 09:24:08;;;;;;;0.03;0.00;;;;;;;13.66;35.92;102152.03;4982159;28;20050;-75
2023/06/02 09:26:36;;;;;;;3.60;0.00;;;;;;;13.56;35.68;102129.34;4986689;28;20046;-75
2023/06/02 09:29:06;;;;;;;0.25;0.00;;;;;;;13.65;36.13;102142.38;4984391;28;20046;-74
2023/06/02 09:31:51;;;;;;;0.25;0.00;;;;;;;13.63;35.89;102138.91;4987141;28;20043;-76
2023/06/02 09:34:19;;;;;;;0.45;0.00;;;;;;;13.64;35.55;102148.53;4983777;28;20046;-75
2023/06/02 09:36:48;;;;;;;0.00;0.00;;;;;;;13.67;35.84;102155.50;4985041;28;20518;-74
2023/06/02 09:39:15;;;;;;;0.90;0.00;;;;;;;13.66;35.83;102148.50;4987251;28;20132;-75
2023/06/02 09:41:47;;;;;;;0.10;0.00;;;;;;;13.67;35.81;102151.13;4987798;28;20051;-75
2023/06/02 09:44:15;;;;;;;0.10;0.00;;;;;;;13.70;36.14;102150.22;4983845;28;20053;-75
2023/06/02 09:46:45;;;;;;;0.00;0.00;;;;;;;13.70;36.02;102143.22;4986461;28;20053;-77
2023/06/02 09:49:12;;;;;;;0.20;0.00;;;;;;;13.63;36.14;102132.78;4989099;28;20042;-82
2023/06/02 09:51:40;;;;;;;2.97;0.20;;;;;;;13.75;36.33;102150.19;4987774;28;20123;-78
2023/06/02 09:54:08;;;;;;;1.00;0.00;;;;;;;13.77;36.38;102151.88;4986299;28;20509;-74
2023/06/02 09:56:37;;;;;;;0.20;0.00;;;;;;;13.76;36.18;102134.41;4989939;28;20050;-77
2023/06/02 09:59:07;;;;;;;3.53;0.00;;;;;;;13.77;35.81;102138.75;4985276;28;20082;-75
2023/06/02 10:01:34;;;;;;;0.00;0.00;;;;;;;13.75;35.90;102127.44;4983048;28;20081;-74
2023/06/02 10:04:02;;;;;;;2.20;0.10;;;;;;;13.92;35.95;102156.16;4983499;28;20046;-75
2023/06/02 10:06:41;;;;;;;0.40;0.00;;;;;;;13.88;36.10;102143.91;4981709;28;20113;-75
2023/06/02 10:09:22;;;;;;;0.90;0.00;;;;;;;13.95;35.35;102156.13;4983960;28;20057;-76
2023/06/02 10:12:02;;;;;;;0.00;0.00;;;;;;;13.91;35.26;102143.88;4986566;28;20169;-74
2023/06/02 10:14:50;;;;;;;2.53;0.00;;;;;;;13.97;35.36;102149.06;4982473;28;20483;-81
2023/06/02 10:17:27;;;;;;;2.60;0.00;;;;;;;14.02;35.45;102154.28;4983113;28;20467;-74
2023/06/02 10:20:22;;;;;;;0.15;0.00;;;;;;;14.05;35.15;102151.63;4985012;28;20058;-72
2023/06/02 10:23:03;;;;;;;0.00;0.00;;;;;;;14.03;34.76;102149.03;4981501;28;20058;-74
2023/06/02 10:25:40;;;;;;;0.82;0.00;;;;;;;14.00;34.71;102149.03;4985582;28;20066;-72
2023/06/02 10:28:08;;;;;;;2.30;0.10;;;;;;;14.03;34.57;102148.13;4985709;28;20411;-73
2023/06/02 10:30:37;;;;;;;2.40;0.00;;;;;;;14.01;34.90;102153.41;4981377;28;20078;-73
2023/06/02 10:33:04;;;;;;;0.10;0.00;;;;;;;14.05;35.00;102152.47;4984358;28;20085;-73
2023/06/02 10:35:59;;;;;;;2.75;0.15;;;;;;;14.09;34.95;102148.09;4984306;28;20052;-73
2023/06/02 10:38:28;;;;;;;1.80;0.00;;;;;;;14.11;35.01;102144.53;4982885;28;20129;-72
2023/06/02 10:40:55;;;;;;;0.85;0.00;;;;;;;14.13;34.69;102140.13;4983910;28;20053;-73
2023/06/02 10:43:22;;;;;;;0.08;0.00;;;;;;;14.14;34.73;102138.38;4984084;28;20074;-73
2023/06/02 10:45:51;;;;;;;0.00;0.00;;;;;;;14.15;34.57;102143.63;4983587;28;20046;-74
2023/06/02 10:48:40;;;;;;;0.10;0.00;;;;;;;14.16;34.70;102145.34;4989875;28;20046;-73
2023/06/02 10:51:08;;;;;;;0.13;0.00;;;;;;;14.19;34.74;102139.19;4989039;28;20049;-73
2023/06/02 10:54:18;;;;;;;0.10;0.00;;;;;;;14.23;34.83;102140.91;4989935;28;20509;-74
2023/06/02 10:56:46;;;;;;;0.00;0.00;;;;;;;14.25;34.59;102133.00;4989619;28;20053;-74
2023/06/02 10:59:32;;;;;;;0.20;0.00;;;;;;;14.30;34.19;102131.19;4984748;28;20054;-74
2023/06/02 11:02:00;;;;;;;;;;;;;;;14.34;34.59;102135.50;4989551;28;20121;-73
2023/06/02 11:04:32;;;;;;;1.42;0.00;;;;;;;14.28;34.45;102123.31;4986508;28;19925;-75
2023/06/02 11:07:21;;;;;;;0.00;0.00;;;;;;;14.37;34.33;102144.25;4989024;28;20478;-74
2023/06/02 11:09:51;;;;;;;1.55;0.00;;;;;;;14.38;34.01;102132.81;4987329;28;20060;-75
2023/06/02 11:12:19;;;;;;;0.47;0.00;;;;;;;14.38;33.99;102142.47;4985446;28;20070;-75
2023/06/02 11:15:17;;;;;;;2.00;0.00;;;;;;;14.42;34.25;102141.53;4986366;28;20097;-78
2023/06/02 11:17:48;;;;;;;0.13;0.05;;;;;;;14.43;33.79;102132.78;4989602;28;20080;-73
2023/06/02 11:20:17;;;;;;;0.00;0.00;;;;;;;14.47;33.55;102144.13;4986552;28;20046;-74
2023/06/02 11:22:44;;;;;;;0.35;0.00;;;;;;;14.47;33.96;102131.84;4990190;28;20049;-78
2023/06/02 11:25:12;;;;;;;12.95;0.65;;;;;;;14.45;33.98;102127.50;4982995;28;20038;-80
2023/06/02 11:27:42;;;;;;;3.78;0.10;;;;;;;14.50;33.69;102146.72;4993439;28;20042;-80
2023/06/02 11:30:14;;;;;;;0.00;0.00;;;;;;;14.51;33.76;102130.91;4988075;28;20046;-69
2023/06/02 11:32:41;;;;;;;0.13;0.03;;;;;;;14.52;33.91;102122.16;4989601;28;20481;-71
2023/06/02 11:35:11;;;;;;;0.28;0.00;;;;;;;14.55;33.46;102145.78;4987352;28;20387;-70
2023/06/02 11:37:40;;;;;;;2.35;0.00;;;;;;;14.56;33.40;102141.41;4988842;28;20488;-67